Time;durP1;ratioP1;P1;durP2;ratioP2;P2;SDS_P1;SDS_P2;PMS_P1;PMS_P2;Temp;Humidity;BMP_temperature;BMP_pressure;BME280_temperature;BME280_humidity;BME280_pressure;Samples;Min_cycle;Max_cycle;Signal;HPM_P1;HPM_P2
2021/06/01 00:01:29;;;;;;;5.57;3.63;;;;;;;;;;5110037;28;20446;-72
2021/06/01 00:03:55;;;;;;;5.03;3.00;;;;;;;;;;5110353;28;20099;-72
2021/06/01 00:07:21;;;;;;;5.72;3.13;;;;;;;;;;5110328;27;20411;-70
2021/06/01 00:09:47;;;;;;;5.38;3.28;;;;;;;;;;5110598;28;20358;-70
2021/06/01 00:12:13;;;;;;;5.47;3.17;;;;;;;;;;5110435;28;20099;-70
2021/06/01 00:14:39;;;;;;;5.25;3.47;;;;;;;;;;5108742;28;20107;-72
2021/06/01 00:17:05;;;;;;;6.05;3.47;;;;;;;;;;5110367;28;20032;-71
2021/06/01 00:19:32;;;;;;;6.00;3.30;;;;;;;;;;5110263;28;20024;-71
2021/06/01 00:21:58;;;;;;;5.60;3.00;;;;;;;;;;5109826;28;20024;-71
2021/06/01 00:24:24;;;;;;;5.90;3.05;;;;;;;;;;5110181;28;20031;-71
2021/06/01 00:26:50;;;;;;;6.65;3.42;;;;;;;;;;5110288;28;20056;-72
2021/06/01 00:29:16;;;;;;;5.43;3.05;;;;;;;;;;5108681;28;20103;-72
2021/06/01 00:31:43;;;;;;;6.07;3.15;;;;;;;;;;5110074;28;20028;-72
2021/06/01 00:34:09;;;;;;;4.00;2.85;;;;;;;;;;5110061;28;20024;-72
2021/06/01 00:36:36;;;;;;;5.47;3.28;;;;;;;;;;5109603;28;20023;-72
2021/06/01 00:39:03;;;;;;;5.45;2.92;;;;;;;;;;5109969;28;20016;-72
2021/06/01 00:42:55;;;;;;;7.07;3.20;;;;;;;;;;5130686;27;20835;-71
2021/06/01 00:45:23;;;;;;;5.40;3.03;;;;;;;;;;5092262;28;20028;-71
2021/06/01 00:47:50;;;;;;;5.35;3.17;;;;;;;;;;5092310;28;20097;-71
2021/06/01 00:50:16;;;;;;;5.28;3.00;;;;;;;;;;5092034;28;20024;-71
2021/06/01 00:52:43;;;;;;;6.88;3.53;;;;;;;;;;5091949;28;20563;-71
2021/06/01 00:55:54;;;;;;;5.47;3.17;;;;;;;;;;5110007;27;20314;-71
2021/06/01 00:58:21;;;;;;;5.47;3.28;;;;;;;;;;5109266;28;20057;-71
2021/06/01 01:03:32;;;;;;;5.38;3.08;;;;;;;;;;5110025;28;20020;-71
2021/06/01 01:06:04;;;;;;;5.43;3.30;;;;;;;;;;5110343;28;20107;-71
2021/06/01 01:08:52;;;;;;;6.20;3.10;;;;;;;;;;5109231;28;20123;-71
2021/06/01 01:11:19;;;;;;;5.80;3.38;;;;;;;;;;5108787;28;20369;-70
2021/06/01 01:13:54;;;;;;;6.72;3.88;;;;;;;;;;5108753;28;20067;-70
2021/06/01 01:16:21;;;;;;;4.63;2.60;;;;;;;;;;5108896;28;20020;-70
2021/06/01 01:18:50;;;;;;;5.78;3.22;;;;;;;;;;5109746;28;20050;-70
2021/06/01 01:21:29;;;;;;;5.75;2.92;;;;;;;;;;5110109;28;20039;-70
2021/06/01 01:24:18;;;;;;;6.22;2.58;;;;;;;;;;5109630;28;20031;-70
2021/06/01 01:27:06;;;;;;;4.20;2.45;;;;;;;;;;5099457;28;20036;-70
2021/06/01 01:29:37;;;;;;;4.45;2.25;;;;;;;;;;5110184;28;20073;-71
2021/06/01 01:32:04;;;;;;;3.95;2.13;;;;;;;;;;5109599;28;20024;-71
2021/06/01 01:34:32;;;;;;;4.57;2.55;;;;;;;;;;5108310;28;20134;-71
2021/06/01 01:36:59;;;;;;;6.22;2.83;;;;;;;;;;5108448;28;20074;-70
2021/06/01 01:39:26;;;;;;;5.82;2.75;;;;;;;;;;5109246;28;20077;-71
2021/06/01 01:43:02;;;;;;;3.70;2.33;;;;;;;;;;5111039;27;20473;-70
2021/06/01 01:45:31;;;;;;;4.45;2.45;;;;;;;;;;5110085;28;20028;-71
2021/06/01 01:50:34;;;;;;;3.72;2.50;;;;;;;;;;5110716;27;20461;-70
2021/06/01 01:53:21;;;;;;;5.07;2.45;;;;;;;;;;5069751;28;20860;-71
2021/06/01 01:55:49;;;;;;;4.03;2.22;;;;;;;;;;5069861;28;20039;-71
2021/06/01 01:59:50;;;;;;;4.90;2.35;;;;;;;;;;5110058;27;20536;-71
2021/06/01 02:02:16;;;;;;;6.05;2.30;;;;;;;;;;5109187;28;20393;-71
2021/06/01 02:04:43;;;;;;;4.22;2.13;;;;;;;;;;5110326;28;20486;-70
2021/06/01 02:07:09;;;;;;;4.90;2.40;;;;;;;;;;5108725;28;20097;-71
2021/06/01 02:09:36;;;;;;;3.90;2.22;;;;;;;;;;5110513;28;20028;-72
2021/06/01 02:12:02;;;;;;;6.47;2.20;;;;;;;;;;5110305;28;20095;-70
2021/06/01 02:14:28;;;;;;;3.88;2.13;;;;;;;;;;5109952;28;20361;-71
2021/06/01 02:19:05;;;;;;;4.15;2.60;;;;;;;;;;5130844;27;20319;-70
2021/06/01 02:24:28;;;;;;;2.75;1.83;;;;;;;;;;5069964;28;20065;-70
2021/06/01 02:27:06;;;;;;;3.05;2.15;;;;;;;;;;5068667;28;20432;-70
2021/06/01 02:29:42;;;;;;;2.97;2.00;;;;;;;;;;5070011;28;20031;-70
2021/06/01 02:33:37;;;;;;;4.35;2.20;;;;;;;;;;5110420;27;20612;-71
2021/06/01 02:36:04;;;;;;;5.10;2.67;;;;;;;;;;5110056;28;20028;-70
2021/06/01 02:38:32;;;;;;;3.45;2.08;;;;;;;;;;5110469;28;20023;-71
2021/06/01 02:40:59;;;;;;;3.45;2.00;;;;;;;;;;5110468;28;20019;-70
2021/06/01 02:43:26;;;;;;;3.15;1.95;;;;;;;;;;5108554;28;20029;-70
2021/06/01 02:45:52;;;;;;;4.63;2.28;;;;;;;;;;5110275;28;20081;-70
2021/06/01 02:48:20;;;;;;;4.28;2.85;;;;;;;;;;5109927;28;20020;-71
2021/06/01 02:50:48;;;;;;;3.65;2.13;;;;;;;;;;5110358;28;20024;-70
2021/06/01 02:53:14;;;;;;;3.15;1.95;;;;;;;;;;5110061;28;20085;-71
2021/06/01 02:55:41;;;;;;;3.50;2.15;;;;;;;;;;5109665;28;20016;-71
2021/06/01 02:58:09;;;;;;;4.82;2.30;;;;;;;;;;5108682;28;20024;-71
2021/06/01 03:00:36;;;;;;;4.57;2.42;;;;;;;;;;5109904;28;20016;-70
2021/06/01 03:03:11;;;;;;;4.55;2.45;;;;;;;;;;5109525;28;20035;-72
2021/06/01 03:05:38;;;;;;;4.85;2.33;;;;;;;;;;5109865;28;20521;-71
2021/06/01 03:12:39;;;;;;;4.43;2.40;;;;;;;;;;5110600;27;20496;-71
2021/06/01 03:16:27;;;;;;;4.47;2.50;;;;;;;;;;5109984;27;20481;-70
2021/06/01 03:18:53;;;;;;;7.85;2.33;;;;;;;;;;5110420;28;20027;-70
2021/06/01 03:21:19;;;;;;;4.28;2.53;;;;;;;;;;5109035;28;20058;-70
2021/06/01 03:23:46;;;;;;;6.10;3.22;;;;;;;;;;5109940;28;20073;-70
2021/06/01 03:26:13;;;;;;;4.85;2.15;;;;;;;;;;5110185;28;20387;-70
2021/06/01 03:28:39;;;;;;;4.72;2.60;;;;;;;;;;5110332;28;20020;-70
2021/06/01 03:33:21;;;;;;;4.10;2.00;;;;;;;;;;5110525;27;20384;-72
2021/06/01 03:38:17;;;;;;;5.60;2.97;;;;;;;;;;5069523;28;20395;-71
2021/06/01 03:40:44;;;;;;;5.13;2.55;;;;;;;;;;5068565;28;20028;-71
2021/06/01 03:43:25;;;;;;;3.50;2.13;;;;;;;;;;5110474;27;20416;-71
2021/06/01 03:46:43;;;;;;;6.00;2.50;;;;;;;;;;5110543;27;20413;-70
2021/06/01 03:49:10;;;;;;;5.43;2.55;;;;;;;;;;5110487;28;20384;-71
2021/06/01 03:53:08;;;;;;;5.15;2.65;;;;;;;;;;5110095;27;20416;-72
2021/06/01 03:55:34;;;;;;;4.28;2.63;;;;;;;;;;5126326;28;20488;-71
2021/06/01 03:58:01;;;;;;;5.75;3.13;;;;;;;;;;5110370;28;20024;-71
2021/06/01 04:00:29;;;;;;;5.38;2.65;;;;;;;;;;5110048;28;20026;-71
2021/06/01 04:04:56;;;;;;;5.03;2.33;;;;;;;;;;5110552;27;20389;-71
2021/06/01 04:09:28;;;;;;;5.45;2.97;;;;;;;;;;5110528;27;20316;-71
2021/06/01 04:11:54;;;;;;;9.05;3.33;;;;;;;;;;5110675;28;20062;-71
2021/06/01 04:14:51;;;;;;;4.53;2.45;;;;;;;;;;5110701;27;20402;-71
2021/06/01 04:17:17;;;;;;;6.13;3.30;;;;;;;;;;5110381;28;20043;-71
2021/06/01 04:21:24;;;;;;;6.07;2.95;;;;;;;;;;5069503;28;20422;-70
2021/06/01 04:23:50;;;;;;;4.43;2.53;;;;;;;;;;5069826;28;20075;-71
2021/06/01 04:26:16;;;;;;;4.13;2.22;;;;;;;;;;5068647;28;20376;-71
2021/06/01 04:28:42;;;;;;;4.63;2.25;;;;;;;;;;5069444;28;20028;-71
2021/06/01 04:31:08;;;;;;;5.88;2.95;;;;;;;;;;5069985;28;20028;-71
2021/06/01 04:33:35;;;;;;;5.13;2.75;;;;;;;;;;5068631;28;20039;-70
2021/06/01 04:41:09;;;;;;;6.13;3.47;;;;;;;;;;5069503;28;20387;-71
2021/06/01 04:45:20;;;;;;;7.63;3.58;;;;;;;;;;5110218;27;20389;-71
2021/06/01 04:47:47;;;;;;;7.28;3.80;;;;;;;;;;5110007;28;20028;-71
2021/06/01 04:50:13;;;;;;;5.55;3.28;;;;;;;;;;5110519;28;20438;-71
2021/06/01 04:53:39;;;;;;;6.38;3.10;;;;;;;;;;5110729;27;20513;-71
2021/06/01 04:56:06;;;;;;;6.40;2.83;;;;;;;;;;5110037;28;20081;-71
2021/06/01 04:58:32;;;;;;;7.25;3.20;;;;;;;;;;5110335;28;20020;-71
2021/06/01 05:00:58;;;;;;;5.60;2.90;;;;;;;;;;5110060;28;20028;-70
2021/06/01 05:04:40;;;;;;;4.55;3.05;;;;;;;;;;5109018;27;20380;-67
2021/06/01 05:07:06;;;;;;;6.72;2.85;;;;;;;;;;5110214;28;20023;-67
2021/06/01 05:10:49;;;;;;;4.82;3.20;;;;;;;;;;5110233;27;20458;-68
2021/06/01 05:13:15;;;;;;;5.70;3.20;;;;;;;;;;5110643;28;20020;-69
2021/06/01 05:15:59;;;;;;;6.03;3.03;;;;;;;;;;5109988;27;20714;-67
2021/06/01 05:18:25;;;;;;;7.32;2.75;;;;;;;;;;5107830;28;20024;-67
2021/06/01 05:20:51;;;;;;;5.38;2.72;;;;;;;;;;5104435;28;20069;-66
2021/06/01 05:26:32;;;;;;;4.93;2.92;;;;;;;;;;5105131;27;20419;-68
2021/06/01 05:33:11;;;;;;;4.00;2.60;;;;;;;;;;5109949;27;20415;-66
2021/06/01 05:35:41;;;;;;;4.22;2.70;;;;;;;;;;5106821;28;20027;-67
2021/06/01 05:38:07;;;;;;;4.15;2.65;;;;;;;;;;5095752;28;20020;-68
2021/06/01 05:40:33;;;;;;;4.53;2.72;;;;;;;;;;5087645;28;20024;-68
2021/06/01 05:43:11;;;;;;;4.57;3.10;;;;;;;;;;5109182;27;20738;-70
2021/06/01 05:45:37;;;;;;;5.63;2.90;;;;;;;;;;5109855;28;20038;-66
2021/06/01 05:48:04;;;;;;;4.75;2.95;;;;;;;;;;5108860;28;20020;-67
2021/06/01 05:50:30;;;;;;;7.28;3.10;;;;;;;;;;5109985;28;20023;-67
2021/06/01 05:52:58;;;;;;;4.57;2.60;;;;;;;;;;5109372;28;20480;-67
2021/06/01 05:56:32;;;;;;;4.93;3.25;;;;;;;;;;5109943;27;20477;-66
2021/06/01 05:58:58;;;;;;;4.32;2.50;;;;;;;;;;5099117;28;20085;-67
2021/06/01 06:01:24;;;;;;;5.53;3.40;;;;;;;;;;5108193;28;20024;-70
2021/06/01 06:03:50;;;;;;;4.65;2.65;;;;;;;;;;5107136;28;20023;-67
2021/06/01 06:06:17;;;;;;;8.10;2.92;;;;;;;;;;5099671;28;20554;-67
2021/06/01 06:08:43;;;;;;;4.28;2.58;;;;;;;;;;5112174;28;20749;-66
2021/06/01 06:12:18;;;;;;;6.80;2.90;;;;;;;;;;5152494;27;20344;-67
2021/06/01 06:14:46;;;;;;;5.60;3.25;;;;;;;;;;5149285;27;20170;-67
2021/06/01 06:17:24;;;;;;;3.95;2.17;;;;;;;;;;5149576;27;20015;-67
2021/06/01 06:19:51;;;;;;;4.32;2.78;;;;;;;;;;5150895;27;20030;-73
2021/06/01 06:22:17;;;;;;;4.40;2.38;;;;;;;;;;5151387;27;20019;-76
2021/06/01 06:24:43;;;;;;;4.55;2.78;;;;;;;;;;5151799;27;20439;-74
2021/06/01 06:27:10;;;;;;;6.10;2.88;;;;;;;;;;5150985;27;20015;-75
2021/06/01 06:32:00;;;;;;;5.78;3.00;;;;;;;;;;5110153;27;20931;-72
2021/06/01 06:34:26;;;;;;;6.30;2.47;;;;;;;;;;5108820;28;20055;-70
2021/06/01 06:38:47;;;;;;;4.00;2.55;;;;;;;;;;5110314;27;21032;-72
2021/06/01 06:41:16;;;;;;;4.85;2.70;;;;;;;;;;5108557;28;20028;-74
2021/06/01 06:43:48;;;;;;;6.25;2.47;;;;;;;;;;5109985;28;20439;-70
2021/06/01 06:46:17;;;;;;;4.93;3.03;;;;;;;;;;5108890;28;20376;-72
2021/06/01 06:50:02;;;;;;;4.88;2.90;;;;;;;;;;5109837;27;20445;-70
2021/06/01 06:53:38;;;;;;;4.93;2.80;;;;;;;;;;5106981;27;20393;-71
2021/06/01 06:56:04;;;;;;;5.43;3.17;;;;;;;;;;5102988;28;20105;-71
2021/06/01 06:58:30;;;;;;;6.60;3.30;;;;;;;;;;5109774;28;20534;-70
2021/06/01 07:05:41;;;;;;;7.45;3.40;;;;;;;;;;5109952;27;20401;-73
2021/06/01 07:08:07;;;;;;;4.53;3.05;;;;;;;;;;5110442;28;20449;-72
2021/06/01 07:10:33;;;;;;;9.35;4.10;;;;;;;;;;5109962;28;20028;-71
2021/06/01 07:13:01;;;;;;;6.10;3.42;;;;;;;;;;5110501;28;20052;-73
2021/06/01 07:16:18;;;;;;;6.00;3.65;;;;;;;;;;5109960;27;20665;-71
2021/06/01 07:18:45;;;;;;;6.60;4.65;;;;;;;;;;5110453;28;20098;-72
2021/06/01 07:21:12;;;;;;;8.55;3.75;;;;;;;;;;5109163;28;20103;-71
2021/06/01 07:26:07;;;;;;;6.85;3.63;;;;;;;;;;5110368;27;20412;-69
2021/06/01 07:32:23;;;;;;;5.50;3.22;;;;;;;;;;5109227;27;20920;-72
2021/06/01 07:35:41;;;;;;;8.85;3.10;;;;;;;;;;5062724;28;20467;-70
2021/06/01 07:38:10;;;;;;;5.93;3.47;;;;;;;;;;5056113;28;20032;-73
2021/06/01 07:40:38;;;;;;;7.03;3.50;;;;;;;;;;5054940;28;20022;-68
2021/06/01 07:43:04;;;;;;;4.53;3.20;;;;;;;;;;5055415;28;20051;-70
2021/06/01 07:45:32;;;;;;;5.72;3.38;;;;;;;;;;5054301;28;20033;-70
2021/06/01 07:47:58;;;;;;;7.00;3.25;;;;;;;;;;5051614;28;20112;-72
2021/06/01 07:50:24;;;;;;;5.63;3.72;;;;;;;;;;5044248;28;20037;-72
2021/06/01 07:52:50;;;;;;;4.55;2.90;;;;;;;;;;5046827;28;20482;-70
2021/06/01 07:55:17;;;;;;;5.22;3.15;;;;;;;;;;5045377;28;20036;-70
2021/06/01 07:57:43;;;;;;;5.25;3.40;;;;;;;;;;5047878;28;20022;-70
2021/06/01 08:00:10;;;;;;;4.20;2.95;;;;;;;;;;5048007;28;20056;-69
2021/06/01 08:02:37;;;;;;;5.25;2.60;;;;;;;;;;5046409;28;20064;-69
2021/06/01 08:05:04;;;;;;;4.70;3.03;;;;;;;;;;5048369;28;20104;-69
2021/06/01 08:09:31;;;;;;;6.45;3.53;;;;;;;;;;5107959;27;20388;-69
2021/06/01 08:11:58;;;;;;;5.82;3.85;;;;;;;;;;5109168;28;20020;-70
2021/06/01 08:14:24;;;;;;;4.95;3.10;;;;;;;;;;5108479;28;20024;-68
2021/06/01 08:18:27;;;;;;;5.90;2.83;;;;;;;;;;5107688;27;20408;-69
2021/06/01 08:22:50;;;;;;;9.32;3.08;;;;;;;;;;5068266;28;20995;-69
2021/06/01 08:26:49;;;;;;;4.20;2.80;;;;;;;;;;5109531;27;20521;-70
2021/06/01 08:30:59;;;;;;;4.97;2.72;;;;;;;;;;5109923;27;20388;-68
2021/06/01 08:33:25;;;;;;;3.95;2.67;;;;;;;;;;5109679;28;20033;-72
2021/06/01 08:35:51;;;;;;;8.95;2.85;;;;;;;;;;5109902;28;20421;-70
2021/06/01 08:38:20;;;;;;;4.15;2.72;;;;;;;;;;5108083;28;20050;-69
2021/06/01 08:40:51;;;;;;;5.35;2.97;;;;;;;;;;5127849;28;20399;-68
2021/06/01 08:43:26;;;;;;;5.40;3.13;;;;;;;;;;5110663;28;20016;-68
2021/06/01 08:47:11;;;;;;;6.72;3.30;;;;;;;;;;5089108;27;20391;-68
2021/06/01 08:49:37;;;;;;;6.50;3.10;;;;;;;;;;5089818;28;20036;-69
2021/06/01 08:52:42;;;;;;;5.30;3.17;;;;;;;;;;5068988;28;20396;-69
2021/06/01 08:55:10;;;;;;;6.25;3.30;;;;;;;;;;5067107;28;20020;-68
2021/06/01 08:57:37;;;;;;;5.68;3.15;;;;;;;;;;5067699;28;20047;-68
2021/06/01 09:00:04;;;;;;;6.30;3.70;;;;;;;;;;5069005;28;20024;-71
2021/06/01 09:06:16;;;;;;;3.92;2.65;;;;;;;;;;5110311;27;20393;-74
2021/06/01 09:08:55;;;;;;;4.05;2.35;;;;;;;;;;5104254;28;20357;-73
2021/06/01 09:22:37;;;;;;;5.47;3.22;;;;;;;;;;5107622;27;20765;-73
2021/06/01 09:25:04;;;;;;;6.18;3.63;;;;;;;;;;5105023;28;20396;-77
2021/06/01 09:31:25;;;;;;;5.70;3.50;;;;;;;;;;5108057;27;20778;-73
2021/06/01 09:34:26;;;;;;;5.25;3.28;;;;;;;;;;5067428;28;20387;-72
2021/06/01 09:36:52;;;;;;;7.28;3.50;;;;;;;;;;5065773;28;20032;-73
2021/06/01 09:39:23;;;;;;;4.95;3.00;;;;;;;;;;5067147;28;20045;-73
2021/06/01 09:41:50;;;;;;;6.20;3.50;;;;;;;;;;5069899;28;20033;-71
2021/06/01 09:44:16;;;;;;;4.53;2.40;;;;;;;;;;5069530;28;20039;-74
2021/06/01 09:47:11;;;;;;;3.28;1.90;;;;;;;;;;5114148;27;20534;-73
2021/06/01 09:49:37;;;;;;;3.05;1.95;;;;;;;;;;5103213;28;20040;-75
2021/06/01 09:52:08;;;;;;;2.67;1.70;;;;;;;;;;5119387;28;20098;-74
2021/06/01 09:55:44;;;;;;;3.20;1.63;;;;;;;;;;5102718;27;20401;-73
2021/06/01 10:00:40;;;;;;;3.67;2.25;;;;;;;;;;5069729;28;20476;-74
2021/06/01 10:05:18;;;;;;;3.33;2.10;;;;;;;;;;5125666;27;20311;-74
2021/06/01 10:08:53;;;;;;;4.05;2.35;;;;;;;;;;5118516;27;20786;-77
2021/06/01 10:12:09;;;;;;;4.18;2.45;;;;;;;;;;5109024;27;20316;-75
2021/06/01 10:15:18;;;;;;;3.85;2.10;;;;;;;;;;5120069;27;20329;-76
2021/06/01 10:17:45;;;;;;;2.67;1.67;;;;;;;;;;5075883;28;20024;-74
2021/06/01 10:20:12;;;;;;;2.65;1.67;;;;;;;;;;5087856;28;20035;-76
2021/06/01 10:22:38;;;;;;;10.40;2.20;;;;;;;;;;5099636;28;20502;-75
2021/06/01 10:25:22;;;;;;;3.92;1.95;;;;;;;;;;5066699;28;20737;-77
2021/06/01 10:27:56;;;;;;;4.32;1.90;;;;;;;;;;5066650;28;20025;-78
2021/06/01 10:30:45;;;;;;;3.90;2.20;;;;;;;;;;5128931;27;20367;-76
2021/06/01 10:33:12;;;;;;;5.35;2.05;;;;;;;;;;5105991;28;20074;-75
2021/06/01 10:35:42;;;;;;;4.93;2.17;;;;;;;;;;5091163;28;20112;-76
2021/06/01 10:42:43;;;;;;;4.38;1.92;;;;;;;;;;5068040;28;20059;-74
2021/06/01 10:50:40;;;;;;;6.70;3.47;;;;;;;;;;5052798;28;20040;-75
2021/06/01 10:56:05;;;;;;;4.13;2.30;;;;;;;;;;5033518;28;20049;-73
2021/06/01 10:58:39;;;;;;;2.47;1.58;;;;;;;;;;5065713;28;20044;-78
2021/06/01 11:02:18;;;;;;;7.20;2.45;;;;;;;;;;5110541;27;20508;-78
2021/06/01 11:05:05;;;;;;;5.28;2.45;;;;;;;;;;5110312;28;20456;-76
2021/06/01 11:08:43;;;;;;;5.72;2.33;;;;;;;;;;5110437;27;20513;-75
2021/06/01 11:11:31;;;;;;;2.72;1.48;;;;;;;;;;5110743;28;20493;-71
2021/06/01 11:13:58;;;;;;;3.05;1.80;;;;;;;;;;5109015;28;20476;-72
2021/06/01 11:16:24;;;;;;;1.60;1.20;;;;;;;;;;5109908;28;20108;-71
2021/06/01 11:19:00;;;;;;;1.38;1.05;;;;;;;;;;5108855;28;20019;-71
2021/06/01 11:21:42;;;;;;;2.38;1.20;;;;;;;;;;5108660;28;20047;-70
2021/06/01 11:34:36;;;;;;;2.45;1.70;;;;;;;;;;5151222;27;20075;-72
2021/06/01 11:37:02;;;;;;;2.97;2.03;;;;;;;;;;5132271;27;20106;-72
2021/06/01 11:45:03;;;;;;;2.28;1.50;;;;;;;;;;5089437;28;20833;-73
2021/06/01 11:48:27;;;;;;;3.70;1.73;;;;;;;;;;5110735;27;20450;-71
2021/06/01 11:51:11;;;;;;;2.60;1.48;;;;;;;;;;5110145;28;20492;-73
2021/06/01 11:53:51;;;;;;;6.00;2.28;;;;;;;;;;5110382;28;20039;-72
2021/06/01 11:56:46;;;;;;;1.67;1.45;;;;;;;;;;5110264;28;20020;-72
2021/06/01 12:02:02;;;;;;;3.65;2.15;;;;;;;;;;5110250;28;20043;-71
2021/06/01 12:11:23;;;;;;;3.90;2.00;;;;;;;;;;5110200;28;20507;-72
2021/06/01 12:13:57;;;;;;;2.20;1.60;;;;;;;;;;5125852;28;20472;-72
2021/06/01 12:17:15;;;;;;;3.83;1.55;;;;;;;;;;5110420;27;21041;-72
2021/06/01 12:19:41;;;;;;;2.65;1.65;;;;;;;;;;5110019;28;20042;-71
2021/06/01 12:22:07;;;;;;;3.75;1.90;;;;;;;;;;5108950;28;20494;-71
2021/06/01 12:24:36;;;;;;;4.03;2.17;;;;;;;;;;5109969;28;20039;-71
2021/06/01 12:27:39;;;;;;;2.97;1.73;;;;;;;;;;5069556;28;20395;-72
2021/06/01 12:33:06;;;;;;;4.57;1.60;;;;;;;;;;5069952;28;20047;-73
2021/06/01 12:46:10;;;;;;;3.72;1.98;;;;;;;;;;5069977;28;20130;-73
2021/06/01 13:06:18;;;;;;;2.45;1.50;;;;;;;;;;5131002;27;20830;-71
2021/06/01 13:39:44;;;;;;;2.80;1.58;;;;;;;;;;5110651;28;20055;-70
2021/06/01 13:49:49;;;;;;;3.17;1.55;;;;;;;;;;5110028;27;20445;-71
2021/06/01 13:52:53;;;;;;;4.25;1.58;;;;;;;;;;5110153;28;20028;-72
2021/06/01 13:55:30;;;;;;;3.17;1.20;;;;;;;;;;5110155;28;20042;-71
2021/06/01 14:01:06;;;;;;;1.92;1.15;;;;;;;;;;5107835;28;20043;-71
2021/06/01 14:37:05;;;;;;;3.08;1.00;;;;;;;;;;5109812;28;20092;-71
2021/06/01 15:10:54;;;;;;;1.75;1.10;;;;;;;;;;5110407;28;20024;-69
2021/06/01 15:32:42;;;;;;;3.78;1.20;;;;;;;;;;5110425;27;20528;-71
2021/06/01 15:48:57;;;;;;;2.80;1.38;;;;;;;;;;5110850;28;20039;-72
2021/06/01 16:29:48;;;;;;;4.45;2.25;;;;;;;;;;5110437;27;20314;-71
2021/06/01 17:05:52;;;;;;;5.22;2.58;;;;;;;;;;5110706;28;20074;-72
2021/06/01 17:08:38;;;;;;;5.10;2.60;;;;;;;;;;5109885;28;20384;-71
2021/06/01 17:13:34;;;;;;;3.95;2.55;;;;;;;;;;5109896;28;20027;-71
2021/06/01 17:16:01;;;;;;;4.82;2.70;;;;;;;;;;5110154;28;20028;-71
2021/06/01 17:19:25;;;;;;;5.90;2.30;;;;;;;;;;5110021;28;20020;-72
2021/06/01 17:22:26;;;;;;;3.85;2.47;;;;;;;;;;5110328;27;20474;-71
2021/06/01 17:39:22;;;;;;;5.35;2.88;;;;;;;;;;5110450;27;20409;-71
2021/06/01 17:43:10;;;;;;;6.13;2.97;;;;;;;;;;5110197;27;20381;-70
2021/06/01 17:47:52;;;;;;;8.45;2.55;;;;;;;;;;5110451;27;20517;-70
2021/06/01 17:52:06;;;;;;;4.97;3.03;;;;;;;;;;5110361;27;20324;-72
2021/06/01 17:54:34;;;;;;;4.35;2.25;;;;;;;;;;5110339;28;20031;-71
2021/06/01 17:57:21;;;;;;;4.38;2.65;;;;;;;;;;5110098;27;20912;-71
2021/06/01 17:59:48;;;;;;;5.18;2.78;;;;;;;;;;5110371;28;20058;-72
2021/06/01 18:02:17;;;;;;;3.33;2.05;;;;;;;;;;5126229;28;20020;-70
2021/06/01 18:05:09;;;;;;;3.70;2.25;;;;;;;;;;5151700;27;20438;-70
2021/06/01 18:08:22;;;;;;;4.20;2.53;;;;;;;;;;5110233;27;20411;-71
2021/06/01 19:25:42;;;;;;;2.22;1.80;;;;;;;;;;5110313;27;20458;-70
2021/06/01 19:49:54;;;;;;;3.97;2.40;;;;;;;;;;5108422;28;20050;-72
2021/06/01 19:50:00;;;;;;;6.57;2.35;;;;;;;;;;5108436;28;20529;-70
2021/06/01 19:54:03;;;;;;;5.25;2.40;;;;;;;;;;5108633;27;20380;-70
2021/06/01 19:56:30;;;;;;;3.78;2.10;;;;;;;;;;5109526;28;20078;-71
2021/06/01 19:58:56;;;;;;;4.65;2.42;;;;;;;;;;5109281;28;20020;-71
2021/06/01 20:03:20;;;;;;;3.28;2.08;;;;;;;;;;5110087;27;20888;-73
2021/06/01 20:05:46;;;;;;;3.67;1.73;;;;;;;;;;5110439;28;20031;-72
2021/06/01 20:08:13;;;;;;;3.25;2.10;;;;;;;;;;5109117;28;20054;-72
2021/06/01 20:11:09;;;;;;;5.22;2.53;;;;;;;;;;5069435;28;20772;-71
2021/06/01 20:13:36;;;;;;;3.00;1.67;;;;;;;;;;5068554;28;20029;-72
2021/06/01 20:16:02;;;;;;;3.72;2.10;;;;;;;;;;5069834;28;20717;-72
2021/06/01 20:18:33;;;;;;;6.45;2.17;;;;;;;;;;5068226;28;20029;-72
2021/06/01 20:21:02;;;;;;;3.33;2.10;;;;;;;;;;5069911;28;20067;-71
2021/06/01 20:23:29;;;;;;;4.03;2.30;;;;;;;;;;5069329;28;20040;-72
2021/06/01 20:25:56;;;;;;;3.53;2.25;;;;;;;;;;5069626;28;20028;-72
2021/06/01 20:31:09;;;;;;;3.13;2.10;;;;;;;;;;5069525;28;20395;-73
2021/06/01 20:40:37;;;;;;;2.97;2.00;;;;;;;;;;5110642;27;20465;-71
2021/06/01 20:44:16;;;;;;;3.97;2.15;;;;;;;;;;5110422;27;20525;-73
2021/06/01 20:46:43;;;;;;;4.15;2.50;;;;;;;;;;5110823;28;20020;-72
2021/06/01 20:49:10;;;;;;;3.28;1.98;;;;;;;;;;5109543;28;20031;-71
2021/06/01 20:53:30;;;;;;;4.65;2.35;;;;;;;;;;5069426;28;20379;-71
2021/06/01 20:56:06;;;;;;;5.80;2.63;;;;;;;;;;5110242;27;20400;-72
2021/06/01 20:58:34;;;;;;;8.70;2.38;;;;;;;;;;5110541;28;20384;-71
2021/06/01 21:02:30;;;;;;;4.43;2.15;;;;;;;;;;5070039;28;20850;-72
2021/06/01 21:04:57;;;;;;;4.97;2.47;;;;;;;;;;5070166;28;20029;-72
2021/06/01 21:08:41;;;;;;;4.22;2.40;;;;;;;;;;5111076;27;20439;-72
2021/06/01 21:11:08;;;;;;;5.15;2.00;;;;;;;;;;5110486;28;20048;-72
2021/06/01 21:14:50;;;;;;;3.75;2.33;;;;;;;;;;5110077;27;20454;-72
2021/06/01 21:17:16;;;;;;;3.42;2.03;;;;;;;;;;5110561;28;20058;-72
2021/06/01 21:24:00;;;;;;;3.38;2.03;;;;;;;;;;5110491;27;20396;-72
2021/06/01 21:26:26;;;;;;;3.63;2.13;;;;;;;;;;5110483;28;20031;-72
2021/06/01 21:30:45;;;;;;;3.72;1.80;;;;;;;;;;5110398;27;20477;-72
2021/06/01 21:33:18;;;;;;;3.78;2.20;;;;;;;;;;5110467;28;20024;-71
2021/06/01 21:35:50;;;;;;;12.35;2.80;;;;;;;;;;5109925;28;20020;-72
2021/06/01 21:38:18;;;;;;;4.40;2.40;;;;;;;;;;5110495;28;20024;-72
2021/06/01 21:42:23;;;;;;;3.58;2.30;;;;;;;;;;5130519;27;20319;-73
2021/06/01 21:46:36;;;;;;;2.80;2.00;;;;;;;;;;5110332;27;20461;-71
2021/06/01 21:49:34;;;;;;;7.50;2.63;;;;;;;;;;5109954;27;20420;-72
2021/06/01 21:52:01;;;;;;;3.47;1.95;;;;;;;;;;5126189;28;20031;-71
2021/06/01 21:54:27;;;;;;;3.63;2.00;;;;;;;;;;5110307;28;20016;-71
2021/06/01 21:57:49;;;;;;;4.93;2.22;;;;;;;;;;5110642;27;20509;-71
2021/06/01 22:00:17;;;;;;;7.25;2.33;;;;;;;;;;5110576;28;20472;-72
2021/06/01 22:02:44;;;;;;;3.85;2.30;;;;;;;;;;5109975;28;20539;-71
2021/06/01 22:05:12;;;;;;;3.85;2.10;;;;;;;;;;5110338;28;20024;-72
2021/06/01 22:07:38;;;;;;;5.97;2.45;;;;;;;;;;5110232;28;20511;-72
2021/06/01 22:10:06;;;;;;;4.35;2.42;;;;;;;;;;5109966;28;20020;-72
2021/06/01 22:14:00;;;;;;;4.13;2.38;;;;;;;;;;5110423;27;20405;-70
2021/06/01 22:19:31;;;;;;;5.50;2.30;;;;;;;;;;5110644;27;20406;-71
2021/06/01 22:21:58;;;;;;;6.63;2.80;;;;;;;;;;5110543;28;20038;-70
2021/06/01 22:26:28;;;;;;;4.60;2.75;;;;;;;;;;5110395;27;20416;-71
2021/06/01 22:29:43;;;;;;;5.35;2.90;;;;;;;;;;5110378;27;20842;-72
2021/06/01 22:32:10;;;;;;;4.68;2.70;;;;;;;;;;5110034;28;20392;-70
2021/06/01 22:34:39;;;;;;;5.25;2.92;;;;;;;;;;5110388;28;20016;-71
2021/06/01 22:38:29;;;;;;;10.00;2.47;;;;;;;;;;5069699;28;20508;-71
2021/06/01 22:40:58;;;;;;;3.65;2.50;;;;;;;;;;5070113;28;20028;-72
2021/06/01 22:45:44;;;;;;;6.72;3.17;;;;;;;;;;5050191;28;20405;-71
2021/06/01 22:50:47;;;;;;;5.63;2.40;;;;;;;;;;5069981;28;20457;-72
2021/06/01 22:53:15;;;;;;;5.13;2.17;;;;;;;;;;5068235;28;20035;-73
2021/06/01 22:55:42;;;;;;;4.72;2.60;;;;;;;;;;5069951;28;20021;-71
2021/06/01 22:58:08;;;;;;;4.82;2.42;;;;;;;;;;5069413;28;20078;-71
2021/06/01 23:00:36;;;;;;;6.20;3.17;;;;;;;;;;5070049;28;20017;-71
2021/06/01 23:03:16;;;;;;;5.18;2.63;;;;;;;;;;5110625;27;21038;-71
2021/06/01 23:05:42;;;;;;;5.85;2.83;;;;;;;;;;5110114;28;20049;-71
2021/06/01 23:10:32;;;;;;;6.50;3.10;;;;;;;;;;5110492;27;20385;-71
2021/06/01 23:13:02;;;;;;;7.43;3.25;;;;;;;;;;5110173;28;20028;-72
2021/06/01 23:17:13;;;;;;;6.22;3.05;;;;;;;;;;5110377;27;20993;-71
2021/06/01 23:19:39;;;;;;;3.70;2.55;;;;;;;;;;5110296;28;20038;-70
2021/06/01 23:23:53;;;;;;;7.10;3.45;;;;;;;;;;5069944;28;20387;-71
2021/06/01 23:27:04;;;;;;;6.57;3.15;;;;;;;;;;5069517;28;20395;-71
2021/06/01 23:29:31;;;;;;;9.00;3.42;;;;;;;;;;5069961;28;20032;-71
2021/06/01 23:31:57;;;;;;;7.10;3.58;;;;;;;;;;5068430;28;20035;-72
2021/06/01 23:34:23;;;;;;;5.28;3.38;;;;;;;;;;5068037;28;20024;-71
2021/06/01 23:36:51;;;;;;;4.70;3.03;;;;;;;;;;5069695;28;20492;-72
2021/06/01 23:43:11;;;;;;;5.90;2.58;;;;;;;;;;5090926;27;20386;-70
2021/06/01 23:45:38;;;;;;;5.07;2.80;;;;;;;;;;5090130;28;20048;-70
2021/06/01 23:50:30;;;;;;;5.55;2.78;;;;;;;;;;5090321;28;20064;-71
2021/06/01 23:52:56;;;;;;;3.85;2.38;;;;;;;;;;5088714;28;20082;-71
2021/06/01 23:57:39;;;;;;;4.72;2.42;;;;;;;;;;5110410;27;20826;-70
